Time;durP1;ratioP1;P1;durP2;ratioP2;P2;SDS_P1;SDS_P2;PMS_P1;PMS_P2;Temp;Humidity;BMP_temperature;BMP_pressure;BME280_temperature;BME280_humidity;BME280_pressure;Samples;Min_cycle;Max_cycle;Signal;HPM_P1;HPM_P2
2022/12/20 00:01:05;;;;;;;;;;;;;;;;;;5041948;28;19947;-85
2022/12/20 00:03:37;;;;;;;;;;;;;;;;;;5045435;28;19928;-85
2022/12/20 00:06:05;;;;;;;;;;;;;;;;;;5078867;28;19925;-85
2022/12/20 00:08:33;;;;;;;;;;;;;;;;;;5045751;28;19921;-85
2022/12/20 00:11:06;;;;;;;;;;;;;;;;;;5073883;28;20297;-84
2022/12/20 00:13:33;;;;;;;;;;;;;;;;;;5042325;28;19956;-85
2022/12/20 00:16:01;;;;;;;;;;;;;;;;;;5047261;28;19920;-85
2022/12/20 00:18:33;;;;;;;;;;;;;;;;;;5041483;28;20365;-85
2022/12/20 00:21:06;;;;;;;;;;;;;;;;;;5038388;28;20269;-85
2022/12/20 00:23:38;;;;;;;;;;;;;;;;;;5048564;28;19921;-85
2022/12/20 00:26:06;;;;;;;;;;;;;;;;;;5050815;28;19927;-84
2022/12/20 00:28:33;;;;;;;;;;;;;;;;;;5047862;28;19920;-85
2022/12/20 00:31:06;;;;;;;;;;;;;;;;;;5041564;28;19935;-85
2022/12/20 00:33:33;;;;;;;;;;;;;;;;;;5048962;28;19921;-84
2022/12/20 00:36:01;;;;;;;;;;;;;;;;;;5073181;28;20384;-85
2022/12/20 00:38:28;;;;;;;;;;;;;;;;;;5043435;28;19940;-84
2022/12/20 00:41:01;;;;;;;;;;;;;;;;;;5054117;28;19921;-84
2022/12/20 00:43:29;;;;;;;;;;;;;;;;;;5078252;28;19928;-84
2022/12/20 00:45:56;;;;;;;;;;;;;;;;;;5076914;28;19921;-84
2022/12/20 00:48:29;;;;;;;;;;;;;;;;;;5072945;28;19931;-84
2022/12/20 00:50:56;;;;;;;;;;;;;;;;;;5042634;28;19921;-85
2022/12/20 00:53:29;;;;;;;;;;;;;;;;;;5043154;28;19928;-85
2022/12/20 00:55:56;;;;;;;;;;;;;;;;;;5051164;28;19920;-83
2022/12/20 00:58:24;;;;;;;;;;;;;;;;;;5039945;28;19925;-84
2022/12/20 01:00:51;;;;;;;;;;;;;;;;;;5063839;28;19944;-84
2022/12/20 01:03:19;;;;;;;;;;;;;;;;;;5075890;28;19952;-84
2022/12/20 01:05:46;;;;;;;;;;;;;;;;;;5042454;28;19928;-84
2022/12/20 01:08:19;;;;;;;;;;;;;;;;;;5043303;28;20296;-83
2022/12/20 01:10:51;;;;;;;;;;;;;;;;;;5074939;28;19928;-84
2022/12/20 01:13:19;;;;;;;;;;;;;;;;;;5045880;28;19929;-82
2022/12/20 01:15:51;;;;;;;;;;;;;;;;;;5072545;28;19928;-84
2022/12/20 01:18:19;;;;;;;;;;;;;;;;;;5042366;28;19949;-84
2022/12/20 01:20:47;;;;;;;;;;;;;;;;;;5045229;28;19921;-85
2022/12/20 01:23:19;;;;;;;;;;;;;;;;;;5044427;28;19932;-85
2022/12/20 01:25:47;;;;;;;;;;;;;;;;;;5072364;28;19920;-83
2022/12/20 01:28:14;;;;;;;;;;;;;;;;;;5045810;28;20285;-83
2022/12/20 01:30:47;;;;;;;;;;;;;;;;;;5041128;28;19928;-84
2022/12/20 01:33:14;;;;;;;;;;;;;;;;;;5071693;28;19931;-83
2022/12/20 01:35:42;;;;;;;;;;;;;;;;;;5056871;28;19928;-84
2022/12/20 01:38:09;;;;;;;;;;;;;;;;;;5043209;28;19931;-84
2022/12/20 01:40:37;;;;;;;;;;;;;;;;;;5046650;28;19928;-84
2022/12/20 01:43:04;;;;;;;;;;;;;;;;;;5068233;28;19921;-85
2022/12/20 01:45:32;;;;;;;;;;;;;;;;;;5071195;28;19920;-85
2022/12/20 01:47:59;;;;;;;;;;;;;;;;;;5045540;28;19924;-85
2022/12/20 01:50:27;;;;;;;;;;;;;;;;;;5074505;28;19931;-85
2022/12/20 01:52:55;;;;;;;;;;;;;;;;;;5044801;28;20415;-84
2022/12/20 01:55:22;;;;;;;;;;;;;;;;;;5072030;28;20346;-83
2022/12/20 01:57:50;;;;;;;;;;;;;;;;;;5041547;28;19948;-84
2022/12/20 02:00:23;;;;;;;;;;;;;;;;;;5074340;28;19929;-84
2022/12/20 02:02:55;;;;;;;;;;;;;;;;;;5044432;28;19928;-85
2022/12/20 02:05:23;;;;;;;;;;;;;;;;;;5038965;28;20404;-84
2022/12/20 02:07:55;;;;;;;;;;;;;;;;;;5045256;28;20281;-84
2022/12/20 02:10:23;;;;;;;;;;;;;;;;;;5076351;28;19939;-84
2022/12/20 02:12:51;;;;;;;;;;;;;;;;;;5047986;28;19924;-84
2022/12/20 02:15:23;;;;;;;;;;;;;;;;;;5075162;28;19928;-83
2022/12/20 02:17:51;;;;;;;;;;;;;;;;;;5067327;28;20402;-83
2022/12/20 02:20:23;;;;;;;;;;;;;;;;;;5073389;28;19921;-83
2022/12/20 02:22:51;;;;;;;;;;;;;;;;;;5072614;28;19928;-83
2022/12/20 02:25:24;;;;;;;;;;;;;;;;;;5079583;28;19921;-85
2022/12/20 02:27:51;;;;;;;;;;;;;;;;;;5059311;28;19928;-84
2022/12/20 02:30:19;;;;;;;;;;;;;;;;;;5044551;28;19928;-85
2022/12/20 02:32:46;;;;;;;;;;;;;;;;;;5050163;28;19925;-83
2022/12/20 02:35:19;;;;;;;;;;;;;;;;;;5067390;28;20372;-84
2022/12/20 02:37:51;;;;;;;;;;;;;;;;;;5080850;28;19924;-84
2022/12/20 02:40:19;;;;;;;;;;;;;;;;;;5080951;28;19921;-85
2022/12/20 02:42:47;;;;;;;;;;;;;;;;;;5043908;28;19928;-84
2022/12/20 02:45:18;;;;;;;;;;;;;;;;;;5049564;28;19931;-84
2022/12/20 02:47:46;;;;;;;;;;;;;;;;;;5046943;28;19928;-84
2022/12/20 02:50:13;;;;;;;;;;;;;;;;;;5071796;28;19924;-84
2022/12/20 02:52:43;;;;;;;;;;;;;;;;;;5050314;28;19927;-84
2022/12/20 02:55:10;;;;;;;;;;;;;;;;;;5051111;28;20293;-85
2022/12/20 02:57:38;;;;;;;;;;;;;;;;;;5052338;28;19928;-84
2022/12/20 03:00:06;;;;;;;;;;;;;;;;;;5039125;28;19920;-84
2022/12/20 03:03:21;;;;;;;;;;;;;;;;;;5044413;28;19921;-84
2022/12/20 03:05:23;;;;;;;;;;;;;;;;;;5047160;28;19924;-85
2022/12/20 03:07:50;;;;;;;;;;;;;;;;;;5049357;28;19929;-84
2022/12/20 03:10:24;;;;;;;;;;;;;;;;;;5077321;28;19928;-83
2022/12/20 03:12:52;;;;;;;;;;;;;;;;;;5043437;28;19932;-84
2022/12/20 03:15:20;;;;;;;;;;;;;;;;;;5073650;28;19920;-85
2022/12/20 03:17:54;;;;;;;;;;;;;;;;;;5051500;28;20357;-84
2022/12/20 03:20:27;;;;;;;;;;;;;;;;;;5058310;28;19925;-84
2022/12/20 03:23:00;;;;;;;;;;;;;;;;;;5040204;28;20549;-84
2022/12/20 03:25:27;;;;;;;;;;;;;;;;;;5040445;28;19928;-84
2022/12/20 03:28:00;;;;;;;;;;;;;;;;;;5048540;28;19925;-84
2022/12/20 03:30:33;;;;;;;;;;;;;;;;;;5071049;28;19929;-84
2022/12/20 03:33:00;;;;;;;;;;;;;;;;;;5074463;28;20389;-84
2022/12/20 03:35:28;;;;;;;;;;;;;;;;;;5081614;28;19928;-84
2022/12/20 03:38:00;;;;;;;;;;;;;;;;;;5047008;28;19928;-84
2022/12/20 03:40:33;;;;;;;;;;;;;;;;;;5046020;28;20019;-84
2022/12/20 03:43:01;;;;;;;;;;;;;;;;;;5068067;28;19929;-84
2022/12/20 03:45:29;;;;;;;;;;;;;;;;;;5075450;28;19929;-84
2022/12/20 03:47:56;;;;;;;;;;;;;;;;;;5048636;28;19921;-84
2022/12/20 03:50:31;;;;;;;;;;;;;;;;;;5055109;28;19944;-84
2022/12/20 03:53:03;;;;;;;;;;;;;;;;;;5042096;28;19928;-84
2022/12/20 03:55:32;;;;;;;;;;;;;;;;;;5043612;28;19928;-84
2022/12/20 03:58:00;;;;;;;;;;;;;;;;;;5066283;28;19920;-84
2022/12/20 04:00:36;;;;;;;;;;;;;;;;;;5041409;28;19921;-84
2022/12/20 04:03:37;;;;;;;;;;;;;;;;;;5046326;28;19924;-84
2022/12/20 04:06:05;;;;;;;;;;;;;;;;;;5069962;28;19928;-85
2022/12/20 04:08:32;;;;;;;;;;;;;;;;;;5048353;28;19928;-83
2022/12/20 04:11:18;;;;;;;;;;;;;;;;;;5041694;28;19928;-84
2022/12/20 04:13:50;;;;;;;;;;;;;;;;;;5045607;28;19948;-83
2022/12/20 04:16:23;;;;;;;;;;;;;;;;;;5042025;28;20309;-84
2022/12/20 04:18:50;;;;;;;;;;;;;;;;;;5047489;28;19921;-85
2022/12/20 04:21:18;;;;;;;;;;;;;;;;;;5046889;28;19924;-84
2022/12/20 04:23:52;;;;;;;;;;;;;;;;;;5046260;28;20542;-84
2022/12/20 04:26:31;;;;;;;;;;;;;;;;;;5064380;28;19921;-84
2022/12/20 04:29:04;;;;;;;;;;;;;;;;;;5072086;28;19927;-84
2022/12/20 04:31:36;;;;;;;;;;;;;;;;;;5038728;28;19921;-84
2022/12/20 04:34:09;;;;;;;;;;;;;;;;;;5044024;28;19920;-83
2022/12/20 04:36:41;;;;;;;;;;;;;;;;;;5070292;28;19932;-84
2022/12/20 04:39:14;;;;;;;;;;;;;;;;;;5077938;28;19948;-84
2022/12/20 04:42:07;;;;;;;;;;;;;;;;;;5046770;28;19921;-85
2022/12/20 04:44:34;;;;;;;;;;;;;;;;;;5047008;28;19928;-84
2022/12/20 04:47:02;;;;;;;;;;;;;;;;;;5075868;28;20390;-84
2022/12/20 04:49:34;;;;;;;;;;;;;;;;;;5047415;28;19931;-84
2022/12/20 04:54:49;;;;;;;;;;;;;;;;;;5047464;28;19921;-84
2022/12/20 04:57:22;;;;;;;;;;;;;;;;;;5050414;28;19924;-85
2022/12/20 04:59:50;;;;;;;;;;;;;;;;;;5043523;28;19921;-84
2022/12/20 05:02:23;;;;;;;;;;;;;;;;;;5044561;28;19948;-85
2022/12/20 05:05:02;;;;;;;;;;;;;;;;;;5043868;28;19935;-88
2022/12/20 05:07:34;;;;;;;;;;;;;;;;;;5043862;28;19921;-85
2022/12/20 05:10:02;;;;;;;;;;;;;;;;;;5049465;28;19928;-84
2022/12/20 05:12:30;;;;;;;;;;;;;;;;;;5042936;28;19920;-85
2022/12/20 05:15:00;;;;;;;;;;;;;;;;;;5048009;28;19928;-85
2022/12/20 05:17:27;;;;;;;;;;;;;;;;;;5077982;28;19927;-84
2022/12/20 05:20:00;;;;;;;;;;;;;;;;;;5048469;28;19921;-85
2022/12/20 05:28:12;;;;;;;;;;;;;;;;;;5043279;28;19921;-85
2022/12/20 05:30:40;;;;;;;;;;;;;;;;;;5048486;28;20286;-85
2022/12/20 05:33:13;;;;;;;;;;;;;;;;;;5036732;28;19921;-85
2022/12/20 05:35:42;;;;;;;;;;;;;;;;;;5080139;28;19921;-85
2022/12/20 05:38:12;;;;;;;;;;;;;;;;;;5051275;28;19921;-85
2022/12/20 05:40:39;;;;;;;;;;;;;;;;;;5043574;28;19921;-84
2022/12/20 05:43:08;;;;;;;;;;;;;;;;;;5031452;28;19921;-85
2022/12/20 05:45:41;;;;;;;;;;;;;;;;;;5041887;28;19920;-85
2022/12/20 05:48:13;;;;;;;;;;;;;;;;;;5034451;28;20697;-85
2022/12/20 05:50:42;;;;;;;;;;;;;;;;;;5045989;28;19927;-84
2022/12/20 05:53:22;;;;;;;;;;;;;;;;;;5049031;28;19939;-84
2022/12/20 05:55:53;;;;;;;;;;;;;;;;;;5076650;28;19928;-84
2022/12/20 05:58:29;;;;;;;;;;;;;;;;;;5067195;28;20397;-85
2022/12/20 06:00:59;;;;;;;;;;;;;;;;;;5046144;28;19988;-85
2022/12/20 06:03:27;;;;;;;;;;;;;;;;;;5071006;28;19939;-85
2022/12/20 06:05:55;;;;;;;;;;;;;;;;;;5056529;28;19924;-86
2022/12/20 06:08:30;;;;;;;;;;;;;;;;;;5042116;28;20384;-85
2022/12/20 06:11:00;;;;;;;;;;;;;;;;;;5070188;28;19921;-85
2022/12/20 06:13:29;;;;;;;;;;;;;;;;;;5077493;28;20280;-85
2022/12/20 06:15:59;;;;;;;;;;;;;;;;;;5070329;28;19921;-85
2022/12/20 06:18:26;;;;;;;;;;;;;;;;;;5067516;28;19921;-85
2022/12/20 06:20:58;;;;;;;;;;;;;;;;;;5068653;28;19921;-85
2022/12/20 06:23:30;;;;;;;;;;;;;;;;;;5048791;28;19935;-85
2022/12/20 06:26:17;;;;;;;;;;;;;;;;;;5080036;28;19921;-85
2022/12/20 06:28:53;;;;;;;;;;;;;;;;;;5047476;28;19921;-85
2022/12/20 06:31:24;;;;;;;;;;;;;;;;;;5073376;28;19921;-84
2022/12/20 06:33:53;;;;;;;;;;;;;;;;;;5066465;28;19928;-86
2022/12/20 06:36:22;;;;;;;;;;;;;;;;;;5044627;28;20404;-85
2022/12/20 06:38:51;;;;;;;;;;;;;;;;;;5049450;28;20369;-85
2022/12/20 06:41:23;;;;;;;;;;;;;;;;;;5077123;28;20297;-85
2022/12/20 06:43:52;;;;;;;;;;;;;;;;;;5047474;28;19920;-86
2022/12/20 06:46:26;;;;;;;;;;;;;;;;;;5072755;28;19921;-85
2022/12/20 06:48:58;;;;;;;;;;;;;;;;;;5055351;28;20629;-86
2022/12/20 06:51:26;;;;;;;;;;;;;;;;;;5042069;28;19920;-85
2022/12/20 06:54:00;;;;;;;;;;;;;;;;;;5073251;28;19921;-85
2022/12/20 06:56:33;;;;;;;;;;;;;;;;;;5049886;28;19921;-84
2022/12/20 06:59:01;;;;;;;;;;;;;;;;;;5044201;28;19921;-85
2022/12/20 07:01:33;;;;;;;;;;;;;;;;;;5049995;28;20270;-84
2022/12/20 07:04:06;;;;;;;;;;;;;;;;;;5050474;28;19924;-86
2022/12/20 07:06:38;;;;;;;;;;;;;;;;;;5049744;28;19920;-85
2022/12/20 07:09:06;;;;;;;;;;;;;;;;;;5071791;28;19932;-85
2022/12/20 07:11:38;;;;;;;;;;;;;;;;;;5044454;28;19928;-85
2022/12/20 07:14:06;;;;;;;;;;;;;;;;;;5047744;28;20384;-86
2022/12/20 07:16:33;;;;;;;;;;;;;;;;;;5048159;28;20365;-85
2022/12/20 07:19:01;;;;;;;;;;;;;;;;;;5049387;28;19921;-84
2022/12/20 07:21:33;;;;;;;;;;;;;;;;;;5043175;28;19921;-84
2022/12/20 07:24:01;;;;;;;;;;;;;;;;;;5046139;28;19920;-85
2022/12/20 07:26:28;;;;;;;;;;;;;;;;;;5052054;28;19928;-84
2022/12/20 07:28:56;;;;;;;;;;;;;;;;;;5051101;28;19948;-85
2022/12/20 07:31:23;;;;;;;;;;;;;;;;;;5041854;28;19920;-85
2022/12/20 07:33:51;;;;;;;;;;;;;;;;;;5040562;28;19920;-86
2022/12/20 07:36:18;;;;;;;;;;;;;;;;;;5040986;28;20294;-85
2022/12/20 07:38:46;;;;;;;;;;;;;;;;;;5047964;28;19933;-85
2022/12/20 07:41:13;;;;;;;;;;;;;;;;;;5047140;28;19928;-85
2022/12/20 07:43:41;;;;;;;;;;;;;;;;;;5076546;28;19928;-85
2022/12/20 07:46:13;;;;;;;;;;;;;;;;;;5045322;28;19921;-85
2022/12/20 07:48:41;;;;;;;;;;;;;;;;;;5051085;28;19920;-85
2022/12/20 07:51:13;;;;;;;;;;;;;;;;;;5044927;28;19947;-85
2022/12/20 07:53:41;;;;;;;;;;;;;;;;;;5049695;28;19944;-86
2022/12/20 07:56:08;;;;;;;;;;;;;;;;;;5046747;28;19947;-84
2022/12/20 07:58:36;;;;;;;;;;;;;;;;;;5042190;28;19932;-85
2022/12/20 08:01:09;;;;;;;;;;;;;;;;;;5042468;28;19921;-85
2022/12/20 08:03:41;;;;;;;;;;;;;;;;;;5048767;28;19921;-85
2022/12/20 08:06:09;;;;;;;;;;;;;;;;;;5039875;28;19928;-85
2022/12/20 08:08:36;;;;;;;;;;;;;;;;;;5027951;28;19928;-85
2022/12/20 08:11:09;;;;;;;;;;;;;;;;;;5038425;28;19920;-85
2022/12/20 08:13:36;;;;;;;;;;;;;;;;;;5035961;28;19928;-85
2022/12/20 08:16:04;;;;;;;;;;;;;;;;;;5061022;28;19928;-85
2022/12/20 08:18:37;;;;;;;;;;;;;;;;;;5032750;28;19929;-84
2022/12/20 08:21:11;;;;;;;;;;;;;;;;;;5066768;28;20018;-85
2022/12/20 08:23:39;;;;;;;;;;;;;;;;;;5037873;28;19921;-85
2022/12/20 08:26:11;;;;;;;;;;;;;;;;;;5065582;28;19935;-85
2022/12/20 08:28:39;;;;;;;;;;;;;;;;;;5069166;28;19932;-86
2022/12/20 08:31:06;;;;;;;;;;;;;;;;;;5038407;28;19967;-84
2022/12/20 08:33:39;;;;;;;;;;;;;;;;;;5030894;28;19929;-83
2022/12/20 08:36:12;;;;;;;;;;;;;;;;;;5038376;28;19921;-84
2022/12/20 08:38:39;;;;;;;;;;;;;;;;;;5039871;28;19924;-85
2022/12/20 08:41:07;;;;;;;;;;;;;;;;;;5041790;28;19936;-85
2022/12/20 08:43:39;;;;;;;;;;;;;;;;;;5044821;28;19929;-83
2022/12/20 08:46:07;;;;;;;;;;;;;;;;;;5027149;28;19928;-84
2022/12/20 08:48:34;;;;;;;;;;;;;;;;;;5063855;28;19928;-84
2022/12/20 08:51:07;;;;;;;;;;;;;;;;;;5037625;28;21338;-83
2022/12/20 08:53:39;;;;;;;;;;;;;;;;;;5052364;28;20601;-82
2022/12/20 08:56:12;;;;;;;;;;;;;;;;;;5026827;28;20502;-85
2022/12/20 08:58:44;;;;;;;;;;;;;;;;;;5029176;28;19935;-84
2022/12/20 09:01:17;;;;;;;;;;;;;;;;;;5029040;28;20501;-88
2022/12/20 09:03:44;;;;;;;;;;;;;;;;;;5026979;28;19928;-84
2022/12/20 09:06:12;;;;;;;;;;;;;;;;;;5036148;28;19940;-83
2022/12/20 09:08:39;;;;;;;;;;;;;;;;;;5022208;28;19961;-85
2022/12/20 09:11:07;;;;;;;;;;;;;;;;;;5019782;28;19929;-83
2022/12/20 09:13:39;;;;;;;;;;;;;;;;;;5025043;28;19929;-83
2022/12/20 09:16:07;;;;;;;;;;;;;;;;;;5025816;28;19931;-83
2022/12/20 09:18:40;;;;;;;;;;;;;;;;;;5029600;28;19929;-83
2022/12/20 09:21:07;;;;;;;;;;;;;;;;;;5033993;28;20535;-82
2022/12/20 09:23:40;;;;;;;;;;;;;;;;;;5024387;28;19929;-83
2022/12/20 09:26:12;;;;;;;;;;;;;;;;;;5030615;28;19932;-82
2022/12/20 09:28:40;;;;;;;;;;;;;;;;;;5028103;28;19929;-83
2022/12/20 09:31:12;;;;;;;;;;;;;;;;;;5033438;28;19935;-85
2022/12/20 09:33:40;;;;;;;;;;;;;;;;;;5034540;28;19936;-83
2022/12/20 09:36:12;;;;;;;;;;;;;;;;;;5028435;28;19929;-83
2022/12/20 09:38:45;;;;;;;;;;;;;;;;;;5033177;28;19940;-81
2022/12/20 09:41:13;;;;;;;;;;;;;;;;;;5034285;28;19925;-85
2022/12/20 09:43:40;;;;;;;;;;;;;;;;;;5025880;28;21192;-82
2022/12/20 09:46:13;;;;;;;;;;;;;;;;;;5027693;28;20374;-82
2022/12/20 09:48:45;;;;;;;;;;;;;;;;;;5027919;28;19951;-81
2022/12/20 09:51:18;;;;;;;;;;;;;;;;;;5056143;28;19932;-82
2022/12/20 09:53:46;;;;;;;;;;;;;;;;;;5023804;28;19928;-83
2022/12/20 09:56:14;;;;;;;;;;;;;;;;;;5024961;28;19928;-84
2022/12/20 09:58:41;;;;;;;;;;;;;;;;;;5033069;28;19943;-85
2022/12/20 10:01:09;;;;;;;;;;;;;;;;;;5030444;28;19928;-83
2022/12/20 10:03:41;;;;;;;;;;;;;;;;;;5057685;28;19936;-82
2022/12/20 10:06:09;;;;;;;;;;;;;;;;;;5031882;28;19959;-83
2022/12/20 10:08:36;;;;;;;;;;;;;;;;;;5029420;28;19925;-86
2022/12/20 10:11:09;;;;;;;;;;;;;;;;;;5030035;28;19940;-82
2022/12/20 10:13:36;;;;;;;;;;;;;;;;;;5029970;28;19936;-81
2022/12/20 10:16:09;;;;;;;;;;;;;;;;;;5061191;28;19936;-80
2022/12/20 10:18:36;;;;;;;;;;;;;;;;;;5033282;28;19990;-84
2022/12/20 10:21:04;;;;;;;;;;;;;;;;;;5033607;28;19929;-86
2022/12/20 10:23:32;;;;;;;;;;;;;;;;;;5065995;28;19929;-86
2022/12/20 10:25:59;;;;;;;;;;;;;;;;;;5060935;28;19928;-89
2022/12/20 10:28:32;;;;;;;;;;;;;;;;;;5032885;28;19929;-86
2022/12/20 10:31:04;;;;;;;;;;;;;;;;;;5063404;28;19936;-89
2022/12/20 10:33:32;;;;;;;;;;;;;;;;;;5033387;28;19928;-87
2022/12/20 10:35:59;;;;;;;;;;;;;;;;;;5032524;28;19936;-87
2022/12/20 10:38:32;;;;;;;;;;;;;;;;;;5069033;28;19921;-87
2022/12/20 10:40:59;;;;;;;;;;;;;;;;;;5036385;28;19921;-88
2022/12/20 10:43:27;;;;;;;;;;;;;;;;;;5034297;28;19929;-85
2022/12/20 10:45:54;;;;;;;;;;;;;;;;;;5039500;28;19939;-88
2022/12/20 10:48:22;;;;;;;;;;;;;;;;;;5035450;28;19929;-87
2022/12/20 10:50:54;;;;;;;;;;;;;;;;;;5036396;28;19928;-90
2022/12/20 10:53:24;;;;;;;;;;;;;;;;;;5071565;28;19928;-88
2022/12/20 10:55:56;;;;;;;;;;;;;;;;;;5035692;28;19928;-88
2022/12/20 10:58:29;;;;;;;;;;;;;;;;;;5032573;28;20278;-87
2022/12/20 11:01:02;;;;;;;;;;;;;;;;;;5038865;28;19936;-86
2022/12/20 11:03:34;;;;;;;;;;;;;;;;;;5034408;28;19928;-84
2022/12/20 11:06:02;;;;;;;;;;;;;;;;;;5061103;28;21265;-83
2022/12/20 11:08:34;;;;;;;;;;;;;;;;;;5037420;28;19928;-83
2022/12/20 11:11:07;;;;;;;;;;;;;;;;;;5029177;28;20526;-87
2022/12/20 11:13:35;;;;;;;;;;;;;;;;;;5065932;28;19929;-83
2022/12/20 11:16:07;;;;;;;;;;;;;;;;;;5026172;28;19929;-85
2022/12/20 11:18:35;;;;;;;;;;;;;;;;;;5026098;28;21228;-83
2022/12/20 11:21:03;;;;;;;;;;;;;;;;;;5029752;28;19928;-85
2022/12/20 11:23:35;;;;;;;;;;;;;;;;;;5059183;28;20725;-84
2022/12/20 11:26:03;;;;;;;;;;;;;;;;;;5034420;28;19931;-83
2022/12/20 11:28:30;;;;;;;;;;;;;;;;;;5027382;28;19928;-83
2022/12/20 11:31:03;;;;;;;;;;;;;;;;;;5032538;28;20007;-85
2022/12/20 11:33:30;;;;;;;;;;;;;;;;;;5028370;28;19936;-83
2022/12/20 11:36:03;;;;;;;;;;;;;;;;;;5030217;28;19928;-83
2022/12/20 11:38:30;;;;;;;;;;;;;;;;;;5022232;28;19937;-85
2022/12/20 11:40:58;;;;;;;;;;;;;;;;;;5015523;28;19971;-83
2022/12/20 11:43:25;;;;;;;;;;;;;;;;;;5017338;28;19928;-86
2022/12/20 11:45:53;;;;;;;;;;;;;;;;;;5029606;28;19983;-82
2022/12/20 11:48:21;;;;;;;;;;;;;;;;;;5061230;28;21376;-83
2022/12/20 11:50:53;;;;;;;;;;;;;;;;;;5023052;28;19929;-82
2022/12/20 11:53:26;;;;;;;;;;;;;;;;;;5031716;28;19928;-87
2022/12/20 11:55:58;;;;;;;;;;;;;;;;;;5031530;28;19933;-86
2022/12/20 11:58:31;;;;;;;;;;;;;;;;;;5033538;28;19939;-87
2022/12/20 12:00:58;;;;;;;;;;;;;;;;;;5022380;28;20010;-83
2022/12/20 12:03:26;;;;;;;;;;;;;;;;;;5026922;28;19929;-87
2022/12/20 12:05:53;;;;;;;;;;;;;;;;;;5024917;28;19928;-85
2022/12/20 12:08:26;;;;;;;;;;;;;;;;;;5022501;28;19933;-85
2022/12/20 12:10:53;;;;;;;;;;;;;;;;;;5025477;28;19928;-82
2022/12/20 12:13:26;;;;;;;;;;;;;;;;;;5032631;28;19928;-82
2022/12/20 12:15:54;;;;;;;;;;;;;;;;;;5025131;28;19935;-84
2022/12/20 12:18:26;;;;;;;;;;;;;;;;;;5054941;28;19929;-85
2022/12/20 12:20:54;;;;;;;;;;;;;;;;;;5054489;28;19931;-83
2022/12/20 12:23:21;;;;;;;;;;;;;;;;;;5026518;28;19936;-83
2022/12/20 12:25:49;;;;;;;;;;;;;;;;;;5027563;28;19940;-83
2022/12/20 12:28:21;;;;;;;;;;;;;;;;;;5028909;28;19924;-84
2022/12/20 12:30:54;;;;;;;;;;;;;;;;;;5026507;28;19928;-88
2022/12/20 12:33:22;;;;;;;;;;;;;;;;;;5027750;28;19936;-84
2022/12/20 12:35:49;;;;;;;;;;;;;;;;;;5024823;28;19935;-85
2022/12/20 12:38:22;;;;;;;;;;;;;;;;;;5027185;28;19950;-84
2022/12/20 12:40:49;;;;;;;;;;;;;;;;;;5032287;28;20312;-86
2022/12/20 12:43:22;;;;;;;;;;;;;;;;;;5030285;28;20487;-86
2022/12/20 12:45:49;;;;;;;;;;;;;;;;;;5045283;28;19928;-86
2022/12/20 12:48:17;;;;;;;;;;;;;;;;;;5028372;28;20531;-86
2022/12/20 12:50:50;;;;;;;;;;;;;;;;;;5029279;28;20312;-86
2022/12/20 12:53:17;;;;;;;;;;;;;;;;;;5028474;28;19921;-85
2022/12/20 12:55:45;;;;;;;;;;;;;;;;;;5032579;28;20870;-87
2022/12/20 12:58:12;;;;;;;;;;;;;;;;;;5032495;28;19929;-86
2022/12/20 13:00:40;;;;;;;;;;;;;;;;;;5029195;28;20361;-87
2022/12/20 13:03:07;;;;;;;;;;;;;;;;;;5034524;28;19929;-86
2022/12/20 13:05:35;;;;;;;;;;;;;;;;;;5061857;28;19928;-87
2022/12/20 13:08:03;;;;;;;;;;;;;;;;;;5032137;28;19929;-88
2022/12/20 13:10:31;;;;;;;;;;;;;;;;;;5029000;28;19929;-85
2022/12/20 13:12:58;;;;;;;;;;;;;;;;;;5055538;28;19932;-86
2022/12/20 13:15:31;;;;;;;;;;;;;;;;;;5031801;28;20519;-85
2022/12/20 13:17:58;;;;;;;;;;;;;;;;;;5025740;28;19929;-86
2022/12/20 13:20:26;;;;;;;;;;;;;;;;;;5035007;28;20400;-86
2022/12/20 13:22:53;;;;;;;;;;;;;;;;;;5030779;28;19929;-85
2022/12/20 13:25:21;;;;;;;;;;;;;;;;;;5056940;28;19936;-85
2022/12/20 13:27:48;;;;;;;;;;;;;;;;;;5023731;28;19929;-85
2022/12/20 13:30:22;;;;;;;;;;;;;;;;;;5025992;28;20400;-86
2022/12/20 13:32:49;;;;;;;;;;;;;;;;;;5032954;28;19929;-85
2022/12/20 13:35:17;;;;;;;;;;;;;;;;;;5027711;28;19921;-86
2022/12/20 13:37:44;;;;;;;;;;;;;;;;;;5025734;28;20034;-86
2022/12/20 13:40:17;;;;;;;;;;;;;;;;;;5025671;28;19940;-87
2022/12/20 13:42:44;;;;;;;;;;;;;;;;;;5057893;28;19929;-86
2022/12/20 13:45:12;;;;;;;;;;;;;;;;;;5030431;28;19929;-86
2022/12/20 13:47:39;;;;;;;;;;;;;;;;;;5025227;28;19928;-86
2022/12/20 13:50:07;;;;;;;;;;;;;;;;;;5023709;28;19929;-86
2022/12/20 13:52:40;;;;;;;;;;;;;;;;;;5029571;28;19928;-85
2022/12/20 13:55:08;;;;;;;;;;;;;;;;;;5033382;28;19929;-85
2022/12/20 13:57:40;;;;;;;;;;;;;;;;;;5029561;28;20499;-86
2022/12/20 14:00:08;;;;;;;;;;;;;;;;;;5025196;28;19931;-86
2022/12/20 14:02:36;;;;;;;;;;;;;;;;;;5030384;28;19928;-85
2022/12/20 14:05:04;;;;;;;;;;;;;;;;;;5033840;28;19929;-85
2022/12/20 14:07:31;;;;;;;;;;;;;;;;;;5059844;28;19929;-87
2022/12/20 14:10:04;;;;;;;;;;;;;;;;;;5029773;28;19929;-87
2022/12/20 14:12:31;;;;;;;;;;;;;;;;;;5035061;28;19940;-86
2022/12/20 14:14:59;;;;;;;;;;;;;;;;;;5035862;28;19959;-86
2022/12/20 14:17:32;;;;;;;;;;;;;;;;;;5035970;28;19929;-86
2022/12/20 14:19:59;;;;;;;;;;;;;;;;;;5035410;28;19924;-88
2022/12/20 14:22:27;;;;;;;;;;;;;;;;;;5041913;28;19929;-89
2022/12/20 14:24:54;;;;;;;;;;;;;;;;;;5037648;28;19935;-87
2022/12/20 14:27:22;;;;;;;;;;;;;;;;;;5065146;28;19928;-88
2022/12/20 14:29:50;;;;;;;;;;;;;;;;;;5035359;28;19935;-87
2022/12/20 14:32:18;;;;;;;;;;;;;;;;;;5040558;28;19928;-86
2022/12/20 14:34:46;;;;;;;;;;;;;;;;;;5071941;28;19963;-87
2022/12/20 14:37:19;;;;;;;;;;;;;;;;;;5041462;28;19928;-85
2022/12/20 14:39:47;;;;;;;;;;;;;;;;;;5038646;28;19929;-87
2022/12/20 14:42:14;;;;;;;;;;;;;;;;;;5039326;28;19935;-88
2022/12/20 14:44:47;;;;;;;;;;;;;;;;;;5036389;28;19920;-87
2022/12/20 14:47:14;;;;;;;;;;;;;;;;;;5037684;28;19929;-87
2022/12/20 14:49:42;;;;;;;;;;;;;;;;;;5041982;28;19929;-88
2022/12/20 14:52:09;;;;;;;;;;;;;;;;;;5036169;28;19929;-88
2022/12/20 14:54:37;;;;;;;;;;;;;;;;;;5041508;28;19936;-87
2022/12/20 14:57:05;;;;;;;;;;;;;;;;;;5077343;28;21261;-88
2022/12/20 14:59:32;;;;;;;;;;;;;;;;;;5078804;28;19939;-83
2022/12/20 15:02:05;;;;;;;;;;;;;;;;;;5041124;28;19939;-82
2022/12/20 15:04:37;;;;;;;;;;;;;;;;;;5040754;28;19935;-85
2022/12/20 15:07:04;;;;;;;;;;;;;;;;;;5038743;28;20369;-82
2022/12/20 15:09:37;;;;;;;;;;;;;;;;;;5071381;28;21270;-82
2022/12/20 15:12:05;;;;;;;;;;;;;;;;;;5039252;28;20389;-81
2022/12/20 15:14:32;;;;;;;;;;;;;;;;;;5038956;28;20301;-82
2022/12/20 15:17:00;;;;;;;;;;;;;;;;;;5040710;28;19955;-81
2022/12/20 15:19:33;;;;;;;;;;;;;;;;;;5067655;28;19929;-83
2022/12/20 15:22:00;;;;;;;;;;;;;;;;;;5041565;28;19929;-82
2022/12/20 15:24:33;;;;;;;;;;;;;;;;;;5071094;28;19932;-82
2022/12/20 15:27:00;;;;;;;;;;;;;;;;;;5039999;28;19921;-82
2022/12/20 15:29:33;;;;;;;;;;;;;;;;;;5069989;28;19935;-84
2022/12/20 15:32:05;;;;;;;;;;;;;;;;;;5042023;28;19928;-83
2022/12/20 15:34:38;;;;;;;;;;;;;;;;;;5039914;28;19929;-83
2022/12/20 15:37:05;;;;;;;;;;;;;;;;;;5073466;28;19932;-82
2022/12/20 15:39:33;;;;;;;;;;;;;;;;;;5039329;28;20399;-83
2022/12/20 15:42:05;;;;;;;;;;;;;;;;;;5069424;28;19928;-83
2022/12/20 15:44:38;;;;;;;;;;;;;;;;;;5039052;28;19947;-82
2022/12/20 15:47:05;;;;;;;;;;;;;;;;;;5034994;28;20704;-85
2022/12/20 15:49:38;;;;;;;;;;;;;;;;;;5034910;28;19928;-85
2022/12/20 15:52:05;;;;;;;;;;;;;;;;;;5037616;28;19929;-81
2022/12/20 15:54:33;;;;;;;;;;;;;;;;;;5038483;28;20407;-82
2022/12/20 15:57:01;;;;;;;;;;;;;;;;;;5042314;28;20276;-84
2022/12/20 15:59:34;;;;;;;;;;;;;;;;;;5033400;28;19936;-83
2022/12/20 16:02:06;;;;;;;;;;;;;;;;;;5038151;28;19929;-86
2022/12/20 16:04:34;;;;;;;;;;;;;;;;;;5034948;28;20518;-85
2022/12/20 16:07:06;;;;;;;;;;;;;;;;;;5035948;28;19936;-84
2022/12/20 16:09:34;;;;;;;;;;;;;;;;;;5036394;28;19936;-82
2022/12/20 16:12:06;;;;;;;;;;;;;;;;;;5070829;28;20424;-85
2022/12/20 16:14:39;;;;;;;;;;;;;;;;;;5039882;28;19951;-85
2022/12/20 16:17:07;;;;;;;;;;;;;;;;;;5040675;28;19943;-82
2022/12/20 16:19:39;;;;;;;;;;;;;;;;;;5040172;28;19940;-82
2022/12/20 16:22:07;;;;;;;;;;;;;;;;;;5069114;28;19929;-82
2022/12/20 16:24:34;;;;;;;;;;;;;;;;;;5038816;28;19950;-84
2022/12/20 16:27:02;;;;;;;;;;;;;;;;;;5035055;28;19928;-81
2022/12/20 16:29:34;;;;;;;;;;;;;;;;;;5072203;28;19939;-83
2022/12/20 16:32:03;;;;;;;;;;;;;;;;;;5036911;28;19931;-81
2022/12/20 16:34:30;;;;;;;;;;;;;;;;;;5035929;28;19928;-79
2022/12/20 16:37:03;;;;;;;;;;;;;;;;;;5048762;28;19924;-79
2022/12/20 16:39:31;;;;;;;;;;;;;;;;;;5045670;28;19920;-80
2022/12/20 16:41:58;;;;;;;;;;;;;;;;;;5043686;28;19920;-82
2022/12/20 16:44:26;;;;;;;;;;;;;;;;;;5030565;28;20562;-81
2022/12/20 16:46:58;;;;;;;;;;;;;;;;;;5064347;28;19929;-79
2022/12/20 16:49:26;;;;;;;;;;;;;;;;;;5037008;28;19928;-81
2022/12/20 16:51:53;;;;;;;;;;;;;;;;;;5038421;28;19932;-80
2022/12/20 16:54:26;;;;;;;;;;;;;;;;;;5027559;28;19934;-81
2022/12/20 16:56:55;;;;;;;;;;;;;;;;;;5026530;28;20007;-80
2022/12/20 16:59:28;;;;;;;;;;;;;;;;;;5026524;28;19929;-80
2022/12/20 17:01:55;;;;;;;;;;;;;;;;;;5023316;28;19929;-80
2022/12/20 17:04:23;;;;;;;;;;;;;;;;;;5025491;28;19936;-81
2022/12/20 17:06:55;;;;;;;;;;;;;;;;;;5034535;28;19929;-81
2022/12/20 17:09:23;;;;;;;;;;;;;;;;;;5060250;28;19948;-80
2022/12/20 17:12:08;;;;;;;;;;;;;;;;;;5026531;28;19936;-81